Time;durP1;ratioP1;P1;durP2;ratioP2;P2;SDS_P1;SDS_P2;PMS_P1;PMS_P2;Temp;Humidity;BMP_temperature;BMP_pressure;BME280_temperature;BME280_humidity;BME280_pressure;Samples;Min_cycle;Max_cycle;Signal;HPM_P1;HPM_P2
2023/06/28 00:01:10;;;;;;;;;;;;;;;;;;4974673;28;20008;-61
2023/06/28 00:03:35;;;;;;;;;;;;;;;;;;4972639;28;20142;-61
2023/06/28 00:06:00;;;;;;;;;;;;;;;;;;4974478;28;20002;-61
2023/06/28 00:08:26;;;;;;;;;;;;;;;;;;4973813;28;19961;-61
2023/06/28 00:10:51;;;;;;;;;;;;;;;;;;4974053;28;20021;-61
2023/06/28 00:13:16;;;;;;;;;;;;;;;;;;4973664;28;19918;-62
2023/06/28 00:15:42;;;;;;;;;;;;;;;;;;4972527;28;19925;-62
2023/06/28 00:18:08;;;;;;;;;;;;;;;;;;4975774;28;19968;-61
2023/06/28 00:20:33;;;;;;;;;;;;;;;;;;4974577;28;19929;-62
2023/06/28 00:22:59;;;;;;;;;;;;;;;;;;4973815;28;20077;-61
2023/06/28 00:25:24;;;;;;;;;;;;;;;;;;4973729;28;19921;-61
2023/06/28 00:27:49;;;;;;;;;;;;;;;;;;4982304;28;19976;-62
2023/06/28 00:30:15;;;;;;;;;;;;;;;;;;4976133;28;19918;-60
2023/06/28 00:32:40;;;;;;;;;;;;;;;;;;4984719;28;19925;-62
2023/06/28 00:35:06;;;;;;;;;;;;;;;;;;4974367;28;20262;-62
2023/06/28 00:37:31;;;;;;;;;;;;;;;;;;4976792;28;20385;-62
2023/06/28 00:39:57;;;;;;;;;;;;;;;;;;4974141;28;19925;-62
2023/06/28 00:42:22;;;;;;;;;;;;;;;;;;4969280;28;20375;-61
2023/06/28 00:44:47;;;;;;;;;;;;;;;;;;4974121;28;19929;-62
2023/06/28 00:47:12;;;;;;;;;;;;;;;;;;4976905;28;19918;-62
2023/06/28 00:49:38;;;;;;;;;;;;;;;;;;4961046;28;19922;-62
2023/06/28 00:52:03;;;;;;;;;;;;;;;;;;4972420;28;19922;-61
2023/06/28 00:54:28;;;;;;;;;;;;;;;;;;4973174;28;20449;-61
2023/06/28 00:56:54;;;;;;;;;;;;;;;;;;4972126;28;20004;-62
2023/06/28 00:59:19;;;;;;;;;;;;;;;;;;4978725;28;19922;-61
2023/06/28 01:01:45;;;;;;;;;;;;;;;;;;4979370;28;19948;-62
2023/06/28 01:04:13;;;;;;;;;;;;;;;;;;4979654;28;20310;-61
2023/06/28 01:06:38;;;;;;;;;;;;;;;;;;4972959;28;20359;-61
2023/06/28 01:09:04;;;;;;;;;;;;;;;;;;4972557;28;19918;-62
2023/06/28 01:11:30;;;;;;;;;;;;;;;;;;4973278;28;19925;-62
2023/06/28 01:13:55;;;;;;;;;;;;;;;;;;4971538;28;20464;-62
2023/06/28 01:16:21;;;;;;;;;;;;;;;;;;4972650;28;19918;-62
2023/06/28 01:18:47;;;;;;;;;;;;;;;;;;4972835;28;19925;-62
2023/06/28 01:21:14;;;;;;;;;;;;;;;;;;4972273;28;20512;-61
2023/06/28 01:23:39;;;;;;;;;;;;;;;;;;4973435;28;19963;-63
2023/06/28 01:26:05;;;;;;;;;;;;;;;;;;4979659;28;20416;-62
2023/06/28 01:28:30;;;;;;;;;;;;;;;;;;4977695;28;19928;-62
2023/06/28 01:30:56;;;;;;;;;;;;;;;;;;4971476;28;19918;-61
2023/06/28 01:33:21;;;;;;;;;;;;;;;;;;4972806;28;19918;-60
2023/06/28 01:35:47;;;;;;;;;;;;;;;;;;4974031;28;19925;-61
2023/06/28 01:38:13;;;;;;;;;;;;;;;;;;4975015;28;20016;-62
2023/06/28 01:40:38;;;;;;;;;;;;;;;;;;4971807;28;20714;-61
2023/06/28 01:43:06;;;;;;;;;;;;;;;;;;4968833;28;20000;-62
2023/06/28 01:45:31;;;;;;;;;;;;;;;;;;4971587;28;19921;-62
2023/06/28 01:47:56;;;;;;;;;;;;;;;;;;4972557;28;19959;-61
2023/06/28 01:50:22;;;;;;;;;;;;;;;;;;4977088;28;19928;-60
2023/06/28 01:52:47;;;;;;;;;;;;;;;;;;4970120;28;19914;-61
2023/06/28 01:55:12;;;;;;;;;;;;;;;;;;4970973;28;19926;-61
2023/06/28 01:57:37;;;;;;;;;;;;;;;;;;4970272;28;19917;-61
2023/06/28 02:00:08;;;;;;;;;;;;;;;;;;4969986;28;19926;-60
2023/06/28 02:02:42;;;;;;;;;;;;;;;;;;4973221;28;20018;-62
2023/06/28 02:05:07;;;;;;;;;;;;;;;;;;4970793;28;20503;-64
2023/06/28 02:07:32;;;;;;;;;;;;;;;;;;4972101;28;19925;-60
2023/06/28 02:09:57;;;;;;;;;;;;;;;;;;4970770;28;19922;-60
2023/06/28 02:12:23;;;;;;;;;;;;;;;;;;4975692;28;19926;-62
2023/06/28 02:14:51;;;;;;;;;;;;;;;;;;4975991;28;20488;-62
2023/06/28 02:17:17;;;;;;;;;;;;;;;;;;4976821;28;19944;-61
2023/06/28 02:19:42;;;;;;;;;;;;;;;;;;4973909;28;19922;-62
2023/06/28 02:22:08;;;;;;;;;;;;;;;;;;4971769;28;19929;-59
2023/06/28 02:24:33;;;;;;;;;;;;;;;;;;4971811;28;20025;-61
2023/06/28 02:26:59;;;;;;;;;;;;;;;;;;4971398;28;20369;-63
2023/06/28 02:29:24;;;;;;;;;;;;;;;;;;4971305;28;20248;-60
2023/06/28 02:31:49;;;;;;;;;;;;;;;;;;4973107;28;19989;-60
2023/06/28 02:34:15;;;;;;;;;;;;;;;;;;4971517;28;19925;-60
2023/06/28 02:36:40;;;;;;;;;;;;;;;;;;4977123;28;19922;-61
2023/06/28 02:39:05;;;;;;;;;;;;;;;;;;4972430;28;19953;-60
2023/06/28 02:41:32;;;;;;;;;;;;;;;;;;4970836;28;19917;-60
2023/06/28 02:43:58;;;;;;;;;;;;;;;;;;4970097;28;20621;-61
2023/06/28 02:46:23;;;;;;;;;;;;;;;;;;4980256;28;19922;-61
2023/06/28 02:48:49;;;;;;;;;;;;;;;;;;4969596;28;20384;-61
2023/06/28 02:51:14;;;;;;;;;;;;;;;;;;4971353;28;19922;-61
2023/06/28 02:53:39;;;;;;;;;;;;;;;;;;4972609;28;19929;-60
2023/06/28 02:56:05;;;;;;;;;;;;;;;;;;4970872;28;19976;-62
2023/06/28 02:58:53;;;;;;;;;;;;;;;;;;4971530;28;19943;-61
2023/06/28 03:01:20;;;;;;;;;;;;;;;;;;4978754;28;20395;-63
2023/06/28 03:03:45;;;;;;;;;;;;;;;;;;4977956;28;19950;-62
2023/06/28 03:06:10;;;;;;;;;;;;;;;;;;4973268;28;19926;-62
2023/06/28 03:08:36;;;;;;;;;;;;;;;;;;4978928;28;20377;-62
2023/06/28 03:11:01;;;;;;;;;;;;;;;;;;4971234;28;19969;-61
2023/06/28 03:13:27;;;;;;;;;;;;;;;;;;4971089;28;19918;-62
2023/06/28 03:15:53;;;;;;;;;;;;;;;;;;4975143;28;20361;-62
2023/06/28 03:18:19;;;;;;;;;;;;;;;;;;4986484;28;19925;-62
2023/06/28 03:20:44;;;;;;;;;;;;;;;;;;4970474;28;19922;-61
2023/06/28 03:23:09;;;;;;;;;;;;;;;;;;4978663;28;19926;-61
2023/06/28 03:25:35;;;;;;;;;;;;;;;;;;4971150;28;20057;-62
2023/06/28 03:28:00;;;;;;;;;;;;;;;;;;4970929;28;20028;-61
2023/06/28 03:30:26;;;;;;;;;;;;;;;;;;4970578;28;19918;-62
2023/06/28 03:32:51;;;;;;;;;;;;;;;;;;4973399;28;20242;-60
2023/06/28 03:35:16;;;;;;;;;;;;;;;;;;4971426;28;20303;-61
2023/06/28 03:37:42;;;;;;;;;;;;;;;;;;4971230;28;19924;-61
2023/06/28 03:40:08;;;;;;;;;;;;;;;;;;4975973;28;19925;-61
2023/06/28 03:42:35;;;;;;;;;;;;;;;;;;4976182;28;19925;-61
2023/06/28 03:45:01;;;;;;;;;;;;;;;;;;4974647;28;20358;-61
2023/06/28 03:47:26;;;;;;;;;;;;;;;;;;4974460;28;19950;-61
2023/06/28 03:49:52;;;;;;;;;;;;;;;;;;4973005;28;19922;-60
2023/06/28 03:52:17;;;;;;;;;;;;;;;;;;4977226;28;19950;-60
2023/06/28 03:54:42;;;;;;;;;;;;;;;;;;4976527;28;19925;-61
2023/06/28 03:57:09;;;;;;;;;;;;;;;;;;4973806;28;19922;-61
2023/06/28 03:59:34;;;;;;;;;;;;;;;;;;4982400;28;19924;-60
2023/06/28 04:01:59;;;;;;;;;;;;;;;;;;4974281;28;19921;-61
2023/06/28 04:04:25;;;;;;;;;;;;;;;;;;4973563;28;19922;-60
2023/06/28 04:06:50;;;;;;;;;;;;;;;;;;4974529;28;19918;-60
2023/06/28 04:09:15;;;;;;;;;;;;;;;;;;4973932;28;20347;-60
2023/06/28 04:11:41;;;;;;;;;;;;;;;;;;4981598;28;20029;-61
2023/06/28 04:14:06;;;;;;;;;;;;;;;;;;4973173;28;19917;-60
2023/06/28 04:16:31;;;;;;;;;;;;;;;;;;4973089;28;19961;-61
2023/06/28 04:18:57;;;;;;;;;;;;;;;;;;4972315;28;19918;-60
2023/06/28 04:21:22;;;;;;;;;;;;;;;;;;4973544;28;19922;-61
2023/06/28 04:23:47;;;;;;;;;;;;;;;;;;4973001;28;20273;-61
2023/06/28 04:26:13;;;;;;;;;;;;;;;;;;4974280;28;19922;-61
2023/06/28 04:28:38;;;;;;;;;;;;;;;;;;4973364;28;20448;-61
2023/06/28 04:31:04;;;;;;;;;;;;;;;;;;4973872;28;20475;-59
2023/06/28 04:33:29;;;;;;;;;;;;;;;;;;4975382;28;20014;-61
2023/06/28 04:35:56;;;;;;;;;;;;;;;;;;4973964;28;19918;-60
2023/06/28 04:38:22;;;;;;;;;;;;;;;;;;4974353;28;20049;-61
2023/06/28 04:40:48;;;;;;;;;;;;;;;;;;4974260;28;19914;-61
2023/06/28 04:43:14;;;;;;;;;;;;;;;;;;4974616;28;19945;-61
2023/06/28 04:45:39;;;;;;;;;;;;;;;;;;4973495;28;20028;-61
2023/06/28 04:48:05;;;;;;;;;;;;;;;;;;4974064;28;19914;-62
2023/06/28 04:50:31;;;;;;;;;;;;;;;;;;4974633;28;20623;-62
2023/06/28 04:52:56;;;;;;;;;;;;;;;;;;4973088;28;19930;-61
2023/06/28 04:55:22;;;;;;;;;;;;;;;;;;4973507;28;20152;-61
2023/06/28 04:57:47;;;;;;;;;;;;;;;;;;4973784;28;19949;-66
2023/06/28 05:00:13;;;;;;;;;;;;;;;;;;4974083;28;19971;-62
2023/06/28 05:02:38;;;;;;;;;;;;;;;;;;4976027;28;20953;-65
2023/06/28 05:05:03;;;;;;;;;;;;;;;;;;4978084;28;20380;-64
2023/06/28 05:07:28;;;;;;;;;;;;;;;;;;4974349;28;20776;-60
2023/06/28 05:09:54;;;;;;;;;;;;;;;;;;4974744;28;20323;-60
2023/06/28 05:12:19;;;;;;;;;;;;;;;;;;4973887;28;19957;-59
2023/06/28 05:14:45;;;;;;;;;;;;;;;;;;4973209;28;20432;-59
2023/06/28 05:17:10;;;;;;;;;;;;;;;;;;4973528;28;19918;-60
2023/06/28 05:19:35;;;;;;;;;;;;;;;;;;4974118;28;19928;-61
2023/06/28 05:22:01;;;;;;;;;;;;;;;;;;4973291;28;20429;-59
2023/06/28 05:24:26;;;;;;;;;;;;;;;;;;4973020;28;19938;-62
2023/06/28 05:26:51;;;;;;;;;;;;;;;;;;4977558;28;20004;-59
2023/06/28 05:29:19;;;;;;;;;;;;;;;;;;4973894;28;19918;-59
2023/06/28 05:31:44;;;;;;;;;;;;;;;;;;4973245;28;19918;-61
2023/06/28 05:34:11;;;;;;;;;;;;;;;;;;4981798;28;20099;-59
2023/06/28 05:36:36;;;;;;;;;;;;;;;;;;4972355;28;19925;-61
2023/06/28 05:39:02;;;;;;;;;;;;;;;;;;4973712;28;19918;-60
2023/06/28 05:41:28;;;;;;;;;;;;;;;;;;4972824;28;20021;-60
2023/06/28 05:43:53;;;;;;;;;;;;;;;;;;4972339;28;19960;-60
2023/06/28 05:46:19;;;;;;;;;;;;;;;;;;4973865;28;20002;-61
2023/06/28 05:48:46;;;;;;;;;;;;;;;;;;4975419;28;19928;-61
2023/06/28 05:51:12;;;;;;;;;;;;;;;;;;4973258;28;19980;-62
2023/06/28 05:53:37;;;;;;;;;;;;;;;;;;4973535;28;19918;-65
2023/06/28 05:56:03;;;;;;;;;;;;;;;;;;4971309;28;19925;-62
2023/06/28 05:58:28;;;;;;;;;;;;;;;;;;4972802;28;20395;-62
2023/06/28 06:00:54;;;;;;;;;;;;;;;;;;4971406;28;19929;-62
2023/06/28 06:03:19;;;;;;;;;;;;;;;;;;4974275;28;19932;-66
2023/06/28 06:05:46;;;;;;;;;;;;;;;;;;4974251;28;20393;-63
2023/06/28 06:08:11;;;;;;;;;;;;;;;;;;4974156;28;19977;-64
2023/06/28 06:10:37;;;;;;;;;;;;;;;;;;4974815;28;19918;-58
2023/06/28 06:13:02;;;;;;;;;;;;;;;;;;4971979;28;20560;-66
2023/06/28 06:15:27;;;;;;;;;;;;;;;;;;4970000;28;19918;-65
2023/06/28 06:17:53;;;;;;;;;;;;;;;;;;4972683;28;20295;-66
2023/06/28 06:20:18;;;;;;;;;;;;;;;;;;4973578;28;20366;-65
2023/06/28 06:22:44;;;;;;;;;;;;;;;;;;4974051;28;20069;-64
2023/06/28 06:25:09;;;;;;;;;;;;;;;;;;4970467;28;20317;-65
2023/06/28 06:27:35;;;;;;;;;;;;;;;;;;4969070;28;20078;-65
2023/06/28 06:30:00;;;;;;;;;;;;;;;;;;4969939;28;20040;-64
2023/06/28 06:32:25;;;;;;;;;;;;;;;;;;4969967;28;19918;-65
2023/06/28 06:34:51;;;;;;;;;;;;;;;;;;4971304;28;19918;-67
2023/06/28 06:37:16;;;;;;;;;;;;;;;;;;4971043;28;20366;-66
2023/06/28 06:39:42;;;;;;;;;;;;;;;;;;4972969;28;19917;-65
2023/06/28 06:42:07;;;;;;;;;;;;;;;;;;4973195;28;19972;-64
2023/06/28 06:44:33;;;;;;;;;;;;;;;;;;4971225;28;19921;-65
2023/06/28 06:46:59;;;;;;;;;;;;;;;;;;4973923;28;19922;-67
2023/06/28 06:49:24;;;;;;;;;;;;;;;;;;4972948;28;19922;-66
2023/06/28 06:51:50;;;;;;;;;;;;;;;;;;4974021;28;20201;-66
2023/06/28 06:54:15;;;;;;;;;;;;;;;;;;4971825;28;19972;-64
2023/06/28 06:56:40;;;;;;;;;;;;;;;;;;4978652;28;19918;-66
2023/06/28 06:59:06;;;;;;;;;;;;;;;;;;4970165;28;20396;-65
2023/06/28 07:01:32;;;;;;;;;;;;;;;;;;4971260;28;20044;-65
2023/06/28 07:03:57;;;;;;;;;;;;;;;;;;4971086;28;19921;-65
2023/06/28 07:06:22;;;;;;;;;;;;;;;;;;4971100;28;20400;-64
2023/06/28 07:08:48;;;;;;;;;;;;;;;;;;4969948;28;20334;-66
2023/06/28 07:11:13;;;;;;;;;;;;;;;;;;4969710;28;19918;-61
2023/06/28 07:13:39;;;;;;;;;;;;;;;;;;4973334;28;19925;-62
2023/06/28 07:16:04;;;;;;;;;;;;;;;;;;4973906;28;19918;-61
2023/06/28 07:18:29;;;;;;;;;;;;;;;;;;4974442;28;19941;-61
2023/06/28 07:20:55;;;;;;;;;;;;;;;;;;4974968;28;20590;-60
2023/06/28 07:23:20;;;;;;;;;;;;;;;;;;4973584;28;19975;-61
2023/06/28 07:25:46;;;;;;;;;;;;;;;;;;4973531;28;20400;-62
2023/06/28 07:28:11;;;;;;;;;;;;;;;;;;4972935;28;19995;-61
2023/06/28 07:30:36;;;;;;;;;;;;;;;;;;4973335;28;19917;-62
2023/06/28 07:33:02;;;;;;;;;;;;;;;;;;4970845;28;20346;-60
2023/06/28 07:35:27;;;;;;;;;;;;;;;;;;4973092;28;19925;-62
2023/06/28 07:37:53;;;;;;;;;;;;;;;;;;4972897;28;19918;-61
2023/06/28 07:40:18;;;;;;;;;;;;;;;;;;4974929;28;20013;-61
2023/06/28 07:42:43;;;;;;;;;;;;;;;;;;4973681;28;19922;-62
2023/06/28 07:45:09;;;;;;;;;;;;;;;;;;4974044;28;19926;-62
2023/06/28 07:47:36;;;;;;;;;;;;;;;;;;4975159;28;19957;-62
2023/06/28 07:50:01;;;;;;;;;;;;;;;;;;4973602;28;19918;-62
2023/06/28 07:52:26;;;;;;;;;;;;;;;;;;4971799;28;19915;-61
2023/06/28 07:54:52;;;;;;;;;;;;;;;;;;4974225;28;19926;-61
2023/06/28 07:57:17;;;;;;;;;;;;;;;;;;4974216;28;19997;-62
2023/06/28 07:59:42;;;;;;;;;;;;;;;;;;4974896;28;19918;-61
2023/06/28 08:02:08;;;;;;;;;;;;;;;;;;4973583;28;20399;-61
2023/06/28 08:04:33;;;;;;;;;;;;;;;;;;4973887;28;19922;-61
2023/06/28 08:06:59;;;;;;;;;;;;;;;;;;4973256;28;19969;-59
2023/06/28 08:09:25;;;;;;;;;;;;;;;;;;4973113;28;20261;-61
2023/06/28 08:11:50;;;;;;;;;;;;;;;;;;4973310;28;19918;-61
2023/06/28 08:14:15;;;;;;;;;;;;;;;;;;4972581;28;19922;-61
2023/06/28 08:16:40;;;;;;;;;;;;;;;;;;4972712;28;19918;-62
2023/06/28 08:19:06;;;;;;;;;;;;;;;;;;4972420;28;19975;-62
2023/06/28 08:21:31;;;;;;;;;;;;;;;;;;4972567;28;20377;-61
2023/06/28 08:23:57;;;;;;;;;;;;;;;;;;4972425;28;20471;-60
2023/06/28 08:26:22;;;;;;;;;;;;;;;;;;4972760;28;19922;-61
2023/06/28 08:28:48;;;;;;;;;;;;;;;;;;4971854;28;20499;-59
2023/06/28 08:31:13;;;;;;;;;;;;;;;;;;4972976;28;19918;-61
2023/06/28 08:33:38;;;;;;;;;;;;;;;;;;4973433;28;19925;-60
2023/06/28 08:36:04;;;;;;;;;;;;;;;;;;4980484;28;20440;-61
2023/06/28 08:38:29;;;;;;;;;;;;;;;;;;4973724;28;20325;-59
2023/06/28 08:40:54;;;;;;;;;;;;;;;;;;4973379;28;20097;-61
2023/06/28 08:43:21;;;;;;;;;;;;;;;;;;4971390;28;19918;-60
2023/06/28 08:45:46;;;;;;;;;;;;;;;;;;4973945;28;19922;-60
2023/06/28 08:48:11;;;;;;;;;;;;;;;;;;4972195;28;19925;-61
2023/06/28 08:50:37;;;;;;;;;;;;;;;;;;4975388;28;19961;-60
2023/06/28 08:53:02;;;;;;;;;;;;;;;;;;4972004;28;20380;-63
2023/06/28 08:55:28;;;;;;;;;;;;;;;;;;4973103;28;19933;-61
2023/06/28 08:57:53;;;;;;;;;;;;;;;;;;4973267;28;19914;-59
2023/06/28 09:00:19;;;;;;;;;;;;;;;;;;4973398;28;20019;-60
2023/06/28 09:02:44;;;;;;;;;;;;;;;;;;4974238;28;20021;-61
2023/06/28 09:05:09;;;;;;;;;;;;;;;;;;4972599;28;19926;-60
2023/06/28 09:07:35;;;;;;;;;;;;;;;;;;4972373;28;19918;-61
2023/06/28 09:10:01;;;;;;;;;;;;;;;;;;4973596;28;19940;-61
2023/06/28 09:12:26;;;;;;;;;;;;;;;;;;4972859;28;20588;-61
2023/06/28 09:14:52;;;;;;;;;;;;;;;;;;4971663;28;20432;-60
2023/06/28 09:17:18;;;;;;;;;;;;;;;;;;4972383;28;19925;-59
2023/06/28 09:19:44;;;;;;;;;;;;;;;;;;4974653;28;19922;-61
2023/06/28 09:22:09;;;;;;;;;;;;;;;;;;4971803;28;19922;-61
2023/06/28 09:24:35;;;;;;;;;;;;;;;;;;4973310;28;19922;-61
2023/06/28 09:27:00;;;;;;;;;;;;;;;;;;4972275;28;20158;-68
2023/06/28 09:29:26;;;;;;;;;;;;;;;;;;4972766;28;19960;-61
2023/06/28 09:31:51;;;;;;;;;;;;;;;;;;4971498;28;19914;-65
2023/06/28 09:34:16;;;;;;;;;;;;;;;;;;4970656;28;19963;-66
2023/06/28 09:36:41;;;;;;;;;;;;;;;;;;4971892;28;19956;-65
2023/06/28 09:39:10;;;;;;;;;;;;;;;;;;4971494;28;20437;-64
2023/06/28 09:41:35;;;;;;;;;;;;;;;;;;4974299;28;19917;-64
2023/06/28 09:44:02;;;;;;;;;;;;;;;;;;4971791;28;19933;-64
2023/06/28 09:46:27;;;;;;;;;;;;;;;;;;4972810;28;19982;-62
2023/06/28 09:48:52;;;;;;;;;;;;;;;;;;4977201;28;20384;-60
2023/06/28 09:51:18;;;;;;;;;;;;;;;;;;4973557;28;19983;-61
2023/06/28 09:53:43;;;;;;;;;;;;;;;;;;4971629;28;20428;-61
2023/06/28 09:56:08;;;;;;;;;;;;;;;;;;4972764;28;19918;-63
2023/06/28 09:58:34;;;;;;;;;;;;;;;;;;4969733;28;19918;-64
2023/06/28 10:00:59;;;;;;;;;;;;;;;;;;4970397;28;19921;-64
2023/06/28 10:03:25;;;;;;;;;;;;;;;;;;4969707;28;19921;-65
2023/06/28 10:05:50;;;;;;;;;;;;;;;;;;4976694;28;19922;-66
2023/06/28 10:08:16;;;;;;;;;;;;;;;;;;4971028;28;19925;-66
2023/06/28 10:10:41;;;;;;;;;;;;;;;;;;4968599;28;19957;-62
2023/06/28 10:13:08;;;;;;;1.63;1.53;;;;;;;;;;4969703;28;20414;-62
2023/06/28 10:15:38;;;;;;;1.80;1.50;;;;;;;;;;4973973;28;20402;-61
2023/06/28 10:18:05;;;;;;;1.60;1.50;;;;;;;;;;4967772;28;20529;-61
2023/06/28 10:20:30;;;;;;;1.85;1.75;;;;;;;;;;4969436;28;20511;-61
2023/06/28 10:22:56;;;;;;;;;;;;;;;;;;4970708;28;20030;-61
2023/06/28 10:25:21;;;;;;;;;;;;;;;;;;4970754;28;20548;-61
2023/06/28 10:27:47;;;;;;;;;;;;;;;;;;4970657;28;20425;-62
2023/06/28 10:30:12;;;;;;;;;;;;;;;;;;4972570;28;20137;-63
2023/06/28 10:32:38;;;;;;;;;;;;;;;;;;4970499;28;20399;-63
2023/06/28 10:35:03;;;;;;;;;;;;;;;;;;4969532;28;19930;-67
2023/06/28 10:37:28;;;;;;;;;;;;;;;;;;4969263;28;19964;-64
2023/06/28 10:39:54;;;;;;;;;;;;;;;;;;4971321;28;20394;-65
2023/06/28 10:42:19;;;;;;;;;;;;;;;;;;4979335;28;19960;-64
2023/06/28 10:44:45;;;;;;;;;;;;;;;;;;4972150;28;19942;-64
2023/06/28 10:47:10;;;;;;;;;;;;;;;;;;4973399;28;19941;-63
2023/06/28 10:49:36;;;;;;;;;;;;;;;;;;4976583;28;19942;-63
2023/06/28 10:52:01;;;;;;;;;;;;;;;;;;4974931;28;20559;-62
2023/06/28 10:54:27;;;;;;;;;;;;;;;;;;4971614;28;19960;-63
2023/06/28 10:56:55;;;;;;;;;;;;;;;;;;4973503;28;19945;-63
2023/06/28 10:59:20;;;;;;;;;;;;;;;;;;4973944;28;19943;-62
2023/06/28 11:01:45;;;;;;;;;;;;;;;;;;4974344;28;19941;-62
2023/06/28 11:04:11;;;;;;;;;;;;;;;;;;4972645;28;19959;-62
2023/06/28 11:06:36;;;;;;;;;;;;;;;;;;4974107;28;19965;-62
2023/06/28 11:09:02;;;;;;;;;;;;;;;;;;4973888;28;19965;-61
2023/06/28 11:11:28;;;;;;;;;;;;;;;;;;4973945;28;19986;-59
2023/06/28 11:13:53;;;;;;;;;;;;;;;;;;4972932;28;20025;-60
2023/06/28 11:16:19;;;;;;;;;;;;;;;;;;4972729;28;20490;-61
2023/06/28 11:18:44;;;;;;;;;;;;;;;;;;4973676;28;19986;-61
2023/06/28 11:21:09;;;;;;;;;;;;;;;;;;4973170;28;19948;-61
2023/06/28 11:23:35;;;;;;;;;;;;;;;;;;4974596;28;20385;-61
2023/06/28 11:26:00;;;;;;;;;;;;;;;;;;4974182;28;20338;-62
2023/06/28 11:28:28;;;;;;;;;;;;;;;;;;4981975;28;19989;-62
2023/06/28 11:30:54;;;;;;;;;;;;;;;;;;4973511;28;19934;-61
2023/06/28 11:33:19;;;;;;;;;;;;;;;;;;4976159;28;19989;-63
2023/06/28 11:35:48;;;;;;;;;;;;;;;;;;4975735;28;19935;-64
2023/06/28 11:38:13;;;;;;;;;;;;;;;;;;4989653;28;19946;-64
2023/06/28 11:40:39;;;;;;;;;;;;;;;;;;4974737;28;20083;-65
2023/06/28 11:43:04;;;;;;;;;;;;;;;;;;4974622;28;20287;-66
2023/06/28 11:45:31;;;;;;;;;;;;;;;;;;4973730;28;20082;-64
2023/06/28 11:47:57;;;;;;;;;;;;;;;;;;4975798;28;19945;-66
2023/06/28 11:50:22;;;;;;;;;;;;;;;;;;4975905;28;19945;-66
2023/06/28 11:52:47;;;;;;;;;;;;;;;;;;4974011;28;19985;-65
2023/06/28 11:55:13;;;;;;;;;;;;;;;;;;4974830;28;19970;-64
2023/06/28 11:57:38;;;;;;;;;;;;;;;;;;4971960;28;19949;-64
2023/06/28 12:00:03;;;;;;;;;;;;;;;;;;4973736;28;20016;-64
2023/06/28 12:02:36;;;;;;;;;;;;;;;;;;4974950;28;20359;-65
2023/06/28 12:05:05;;;;;;;;;;;;;;;;;;4972112;28;19962;-64
2023/06/28 12:07:30;;;;;;;;;;;;;;;;;;4973417;28;20480;-63
2023/06/28 12:09:56;;;;;;;;;;;;;;;;;;4974318;28;19935;-63
2023/06/28 12:12:21;;;;;;;;;;;;;;;;;;4973189;28;20025;-61
2023/06/28 12:14:49;;;;;;;;;;;;;;;;;;4971269;28;19938;-61
2023/06/28 12:17:14;;;;;;;;;;;;;;;;;;4973028;28;20543;-66
2023/06/28 12:19:39;;;;;;;;;;;;;;;;;;4974502;28;19938;-66
2023/06/28 12:22:05;;;;;;;;;;;;;;;;;;4973424;28;20383;-66
2023/06/28 12:24:30;;;;;;;;;;;;;;;;;;4973928;28;20330;-66
2023/06/28 12:26:55;;;;;;;;;;;;;;;;;;4972385;28;19933;-66
2023/06/28 12:29:21;;;;;;;;;;;;;;;;;;4973691;28;20409;-65
2023/06/28 12:31:47;;;;;;;;;;;;;;;;;;4973774;28;19944;-62
2023/06/28 12:34:12;;;;;;;;;;;;;;;;;;4974826;28;19959;-64
2023/06/28 12:36:37;;;;;;;;;;;;;;;;;;4974675;28;20291;-61
2023/06/28 12:39:02;;;;;;;;;;;;;;;;;;4973951;28;19945;-63
2023/06/28 12:41:28;;;;;;;;;;;;;;;;;;4981852;28;19941;-62
2023/06/28 12:43:53;;;;;;;;;;;;;;;;;;4971771;28;19951;-62
2023/06/28 12:46:18;;;;;;;;;;;;;;;;;;4974939;28;19950;-63
2023/06/28 12:48:44;;;;;;;;;;;;;;;;;;4973275;28;20437;-66
2023/06/28 12:51:09;;;;;;;;;;;;;;;;;;4973286;28;20380;-62
2023/06/28 12:53:34;;;;;;;;;;;;;;;;;;4973232;28;19939;-64
2023/06/28 12:56:00;;;;;;;;;;;;;;;;;;4970275;28;19992;-62
2023/06/28 12:58:25;;;;;;;;;;;;;;;;;;4972199;28;19956;-64
2023/06/28 13:00:50;;;;;;;;;;;;;;;;;;4972388;28;19987;-62
2023/06/28 13:03:16;;;;;;;;;;;;;;;;;;4971634;28;19956;-63
2023/06/28 13:05:41;;;;;;;;;;;;;;;;;;4973361;28;20083;-62
2023/06/28 13:08:06;;;;;;;;;;;;;;;;;;4973634;28;20082;-62
2023/06/28 13:10:31;;;;;;;;;;;;;;;;;;4986165;28;19976;-64
2023/06/28 13:12:57;;;;;;;;;;;;;;;;;;4970418;28;20022;-64
2023/06/28 13:15:24;;;;;;;;;;;;;;;;;;4971111;28;19956;-61
2023/06/28 13:17:49;;;;;;;;;;;;;;;;;;4974378;28;19946;-61
2023/06/28 13:20:14;;;;;;;;;;;;;;;;;;4973155;28;20031;-61
2023/06/28 13:22:40;;;;;;;;;;;;;;;;;;4971329;28;19986;-64
2023/06/28 13:25:05;;;;;;;;;;;;;;;;;;4970652;28;19940;-61
2023/06/28 13:27:32;;;;;;;;;;;;;;;;;;4972338;28;19946;-69
2023/06/28 13:29:58;;;;;;;;;;;;;;;;;;4972344;28;19941;-69
2023/06/28 13:32:24;;;;;;;;;;;;;;;;;;4974221;28;19944;-68
2023/06/28 13:34:49;;;;;;;;;;;;;;;;;;4974301;28;20137;-69
2023/06/28 13:37:14;;;;;;;;;;;;;;;;;;4975147;28;19942;-69
2023/06/28 13:39:40;;;;;;;;;;;;;;;;;;4981956;28;19977;-70
2023/06/28 13:42:05;;;;;;;;;;;;;;;;;;4978747;28;19965;-69
2023/06/28 13:44:30;;;;;;;;;;;;;;;;;;4972477;28;20020;-67
2023/06/28 13:46:56;;;;;;;;;;;;;;;;;;4981331;28;20086;-69
2023/06/28 13:49:21;;;;;;;;;;;;;;;;;;4976296;28;19969;-73
2023/06/28 13:51:46;;;;;;;;;;;;;;;;;;4976644;28;19942;-64
2023/06/28 13:54:12;;;;;;;;;;;;;;;;;;4972435;28;19963;-66
2023/06/28 13:56:37;;;;;;;;;;;;;;;;;;4971564;28;19940;-65
2023/06/28 13:59:02;;;;;;;;;;;;;;;;;;4980899;28;20023;-63
2023/06/28 14:01:27;;;;;;;;;;;;;;;;;;4972901;28;20029;-61
2023/06/28 14:03:53;;;;;;;;;;;;;;;;;;4972205;28;19945;-61
2023/06/28 14:06:18;;;;;;;;;;;;;;;;;;4970716;28;20321;-62
2023/06/28 14:08:43;;;;;;;;;;;;;;;;;;4971062;28;19930;-62
2023/06/28 14:11:09;;;;;;;;;;;;;;;;;;4972330;28;19942;-62
2023/06/28 14:13:35;;;;;;;;;;;;;;;;;;4970600;28;19931;-62
2023/06/28 14:16:00;;;;;;;;;;;;;;;;;;4971662;28;19995;-62
2023/06/28 14:18:25;;;;;;;;;;;;;;;;;;4971854;28;19937;-63
2023/06/28 14:20:50;;;;;;;;;;;;;;;;;;4970390;28;19941;-62
2023/06/28 14:23:16;;;;;;;;;;;;;;;;;;4971658;28;19960;-62
2023/06/28 14:25:41;;;;;;;;;;;;;;;;;;4972278;28;20028;-62
2023/06/28 14:28:07;;;;;;;;;;;;;;;;;;4971891;28;19945;-61
2023/06/28 14:30:32;;;;;;;;;;;;;;;;;;4970747;28;19937;-61
2023/06/28 14:32:58;;;;;;;;;;;;;;;;;;4971281;28;19941;-62
2023/06/28 14:35:23;;;;;;;;;;;;;;;;;;4971632;28;20312;-64
2023/06/28 14:37:48;;;;;;;;;;;;;;;;;;4970896;28;19939;-62
2023/06/28 14:40:13;;;;;;;;;;;;;;;;;;4969544;28;19997;-62
2023/06/28 14:42:39;;;;;;;;;;;;;;;;;;4969377;28;19959;-62
2023/06/28 14:45:05;;;;;;;;;;;;;;;;;;4971087;28;19941;-62
2023/06/28 14:47:30;;;;;;;;;;;;;;;;;;4972046;28;20003;-62
2023/06/28 14:49:56;;;;;;;;;;;;;;;;;;4972199;28;20500;-62
2023/06/28 14:52:21;;;;;;;;;;;;;;;;;;4970768;28;20375;-63
2023/06/28 14:54:46;;;;;;;;;;;;;;;;;;4970420;28;19964;-63
2023/06/28 14:57:12;;;;;;;;;;;;;;;;;;4970688;28;20028;-62
2023/06/28 14:59:37;;;;;;;;;;;;;;;;;;4978974;28;20395;-62
2023/06/28 15:02:02;;;;;;;;;;;;;;;;;;4971755;28;19943;-63
2023/06/28 15:04:28;;;;;;;;;;;;;;;;;;4970988;28;20509;-62
2023/06/28 15:06:54;;;;;;;;;;;;;;;;;;4972532;28;19938;-63
2023/06/28 15:09:20;;;;;;;;;;;;;;;;;;4971904;28;19942;-62
2023/06/28 15:11:47;;;;;;;;;;;;;;;;;;4970225;28;19966;-61
2023/06/28 15:14:13;;;;;;;;;;;;;;;;;;4974476;28;19943;-63
2023/06/28 15:16:43;;;;;;;;;;;;;;;;;;4971490;28;19958;-66
2023/06/28 15:19:08;;;;;;;;;;;;;;;;;;4973782;28;20413;-64
2023/06/28 15:21:36;;;;;;;;;;;;;;;;;;4974239;28;19943;-61
2023/06/28 15:24:01;;;;;;;;;;;;;;;;;;4972573;28;20428;-61
2023/06/28 15:26:27;;;;;;;;;;;;;;;;;;4970606;28;19940;-61
2023/06/28 15:28:53;;;;;;;;;;;;;;;;;;4970692;28;20035;-62
2023/06/28 15:31:19;;;;;;;;;;;;;;;;;;4969903;28;19943;-62
2023/06/28 15:33:44;;;;;;;;;;;;;;;;;;4972936;28;19947;-61
2023/06/28 15:36:09;;;;;;;;;;;;;;;;;;4978052;28;21930;-60
2023/06/28 15:38:35;;;;;;;;;;;;;;;;;;4974592;28;19952;-62
2023/06/28 15:41:00;;;;;;;;;;;;;;;;;;4973467;28;19947;-63
2023/06/28 15:43:25;;;;;;;;;;;;;;;;;;4972608;28;20057;-62
2023/06/28 15:45:51;;;;;;;;;;;;;;;;;;4974879;28;19948;-61
2023/06/28 15:48:16;;;;;;;;;;;;;;;;;;4975045;28;19939;-61
2023/06/28 15:50:41;;;;;;;;;;;;;;;;;;4973937;28;19945;-62
2023/06/28 15:53:07;;;;;;;;;;;;;;;;;;4972239;28;19980;-62
2023/06/28 15:55:32;;;;;;;;;;;;;;;;;;4972086;28;20460;-63
2023/06/28 15:57:58;;;;;;;;;;;;;;;;;;4973945;28;20307;-64
2023/06/28 16:00:23;;;;;;;;;;;;;;;;;;4975375;28;19943;-64
2023/06/28 16:02:52;;;;;;;;;;;;;;;;;;4974644;28;20014;-63
2023/06/28 16:05:17;;;;;;;;;;;;;;;;;;4982593;28;19952;-63
2023/06/28 16:07:42;;;;;;;;;;;;;;;;;;4973910;28;19945;-63
2023/06/28 16:10:08;;;;;;;;;;;;;;;;;;4973784;28;20739;-63
2023/06/28 16:12:33;;;;;;;;;;;;;;;;;;4975900;28;20024;-65
2023/06/28 16:14:59;;;;;;;;;;;;;;;;;;4974268;28;19986;-62
2023/06/28 16:17:26;;;;;;;;;;;;;;;;;;4973493;28;19946;-62
2023/06/28 16:19:51;;;;;;;;;;;;;;;;;;4975373;28;19944;-63
2023/06/28 16:22:17;;;;;;;;;;;;;;;;;;4973847;28;20059;-62
2023/06/28 16:24:42;;;;;;;;;;;;;;;;;;4973081;28;19938;-62
2023/06/28 16:27:07;;;;;;;;;;;;;;;;;;4971945;28;19942;-58
2023/06/28 16:29:33;;;;;;;;;;;;;;;;;;4973570;28;19943;-61
2023/06/28 16:31:58;;;;;;;;;;;;;;;;;;4976275;28;19948;-61